createdAt,value
2024-04-18T00:00:23.181Z,0.77
2024-04-18T00:02:24.791Z,0.60
2024-04-18T00:04:26.699Z,0.65
2024-04-18T00:06:28.545Z,0.80
2024-04-18T00:08:30.174Z,1.13
2024-04-18T00:10:31.797Z,0.65
2024-04-18T00:12:33.632Z,0.70
2024-04-18T00:14:35.287Z,1.00
2024-04-18T00:16:37.010Z,0.65
2024-04-18T00:18:38.693Z,0.85
2024-04-18T00:20:40.333Z,0.63
2024-04-18T00:22:41.981Z,1.98
2024-04-18T00:24:43.720Z,0.93
2024-04-18T00:26:45.424Z,1.50
2024-04-18T00:28:47.128Z,0.82
2024-04-18T00:30:48.842Z,0.80
2024-04-18T00:32:50.577Z,0.77
2024-04-18T00:34:52.219Z,0.70
2024-04-18T00:36:53.897Z,0.80
2024-04-18T00:38:55.496Z,0.55
2024-04-18T00:40:57.154Z,0.75
2024-04-18T00:42:59.645Z,1.27
2024-04-18T00:45:01.248Z,0.98
2024-04-18T00:47:03.293Z,0.90
2024-04-18T00:49:05.228Z,1.80
2024-04-18T00:51:07.152Z,0.50
2024-04-18T00:53:09.112Z,0.95
2024-04-18T00:55:11.089Z,1.15
2024-04-18T00:57:13.838Z,0.75
2024-04-18T00:59:16.752Z,0.70
2024-04-18T01:01:18.977Z,0.88
2024-04-18T01:03:20.850Z,1.08
2024-04-18T01:05:22.684Z,0.80
2024-04-18T01:07:25.499Z,0.77
2024-04-18T01:09:27.143Z,0.88
2024-04-18T01:11:28.788Z,0.65
2024-04-18T01:13:37.112Z,0.82
2024-04-18T01:15:38.764Z,0.93
2024-04-18T01:17:42.912Z,0.93
2024-04-18T01:19:44.637Z,0.70
2024-04-18T01:21:49.312Z,1.20
2024-04-18T01:23:50.932Z,0.77
2024-04-18T01:25:52.824Z,0.82
2024-04-18T01:27:54.414Z,0.82
2024-04-18T01:29:56.042Z,0.80
2024-04-18T01:31:57.738Z,0.90
2024-04-18T01:33:59.524Z,0.90
2024-04-18T01:36:01.334Z,0.85
2024-04-18T01:38:05.728Z,1.00
2024-04-18T01:40:08.086Z,0.77
2024-04-18T01:42:09.837Z,0.75
2024-04-18T01:44:12.565Z,0.90
2024-04-18T01:46:15.128Z,0.70
2024-04-18T01:48:17.023Z,0.68
2024-04-18T01:50:18.821Z,0.90
2024-04-18T01:52:20.582Z,0.90
2024-04-18T01:54:22.248Z,0.80
2024-04-18T01:56:23.981Z,1.05
2024-04-18T01:58:25.635Z,1.30
2024-04-18T02:00:27.432Z,0.75
2024-04-18T02:02:29.088Z,1.05
2024-04-18T02:04:30.819Z,0.95
2024-04-18T02:06:32.630Z,0.73
2024-04-18T02:08:34.288Z,1.08
2024-04-18T02:10:35.967Z,0.80
2024-04-18T02:12:39.025Z,1.08
2024-04-18T02:14:42.708Z,0.93
2024-04-18T02:16:44.604Z,0.90
2024-04-18T02:18:46.745Z,1.48
2024-04-18T02:20:50.156Z,0.93
2024-04-18T02:22:52.238Z,1.45
2024-04-18T02:25:10.371Z,0.80
2024-04-18T02:27:12.044Z,0.77
2024-04-18T02:29:13.829Z,0.80
2024-04-18T02:31:15.540Z,1.17
2024-04-18T02:33:18.014Z,0.88
2024-04-18T02:35:19.833Z,1.20
2024-04-18T02:37:21.495Z,1.02
2024-04-18T02:39:23.207Z,1.00
2024-04-18T02:41:25.683Z,1.10
2024-04-18T02:43:28.162Z,1.10
2024-04-18T02:45:30.071Z,1.42
2024-04-18T02:47:32.665Z,1.13
2024-04-18T02:49:34.553Z,1.23
2024-04-18T02:51:36.218Z,0.93
2024-04-18T02:53:38.555Z,0.73
2024-04-18T02:55:40.997Z,1.15
2024-04-18T02:57:42.684Z,0.95
2024-04-18T02:59:44.476Z,1.20
2024-04-18T03:01:46.123Z,1.00
2024-04-18T03:03:47.822Z,0.88
2024-04-18T03:05:49.453Z,1.60
2024-04-18T03:07:51.166Z,1.45
2024-04-18T03:09:54.601Z,1.10
2024-04-18T03:11:56.813Z,1.83
2024-04-18T03:13:58.427Z,1.30
2024-04-18T03:16:00.051Z,1.15
2024-04-18T03:18:01.858Z,1.30
2024-04-18T03:20:03.580Z,1.10
2024-04-18T03:22:05.220Z,0.98
2024-04-18T03:24:20.272Z,1.65
2024-04-18T03:26:21.922Z,0.90
2024-04-18T03:28:23.586Z,1.52
2024-04-18T03:30:25.285Z,1.00
2024-04-18T03:32:27.078Z,1.00
2024-04-18T03:34:28.776Z,0.93
2024-04-18T03:36:31.362Z,0.90
2024-04-18T03:38:33.009Z,1.40
2024-04-18T03:40:35.413Z,1.30
2024-04-18T03:42:37.048Z,1.38
2024-04-18T03:44:38.754Z,1.63
2024-04-18T03:46:40.980Z,0.93
2024-04-18T03:48:42.674Z,1.48
2024-04-18T03:50:44.318Z,0.93
2024-04-18T03:52:45.976Z,1.20
2024-04-18T03:55:00.317Z,1.10
2024-04-18T03:57:03.758Z,1.13
2024-04-18T03:59:05.380Z,0.80
2024-04-18T04:01:07.156Z,0.90
2024-04-18T04:03:08.902Z,1.10
2024-04-18T04:05:10.611Z,1.05
2024-04-18T04:07:12.264Z,1.27
2024-04-18T04:09:14.160Z,1.00
2024-04-18T04:11:15.868Z,1.20
2024-04-18T04:13:17.532Z,1.65
2024-04-18T04:15:19.463Z,1.17
2024-04-18T04:17:21.117Z,1.23
2024-04-18T04:19:22.890Z,1.85
2024-04-18T04:21:25.018Z,1.30
2024-04-18T04:23:27.180Z,1.30
2024-04-18T04:25:28.787Z,1.13
2024-04-18T04:27:31.018Z,1.15
2024-04-18T04:29:33.318Z,1.38
2024-04-18T04:31:34.932Z,1.08
2024-04-18T04:33:36.601Z,1.55
2024-04-18T04:35:38.270Z,1.60
2024-04-18T04:37:42.362Z,1.23
2024-04-18T04:39:46.513Z,1.20
2024-04-18T04:41:48.681Z,1.75
2024-04-18T04:43:51.846Z,1.40
2024-04-18T04:45:56.329Z,1.48
2024-04-18T04:47:58.559Z,1.20
2024-04-18T04:50:00.403Z,2.80
2024-04-18T04:52:04.356Z,1.20
2024-04-18T04:54:07.265Z,0.95
2024-04-18T04:56:09.187Z,1.58
2024-04-18T04:58:12.433Z,1.83
2024-04-18T05:00:14.751Z,1.48
2024-04-18T05:02:16.489Z,1.90
2024-04-18T05:04:20.089Z,1.35
2024-04-18T05:06:24.384Z,1.30
2024-04-18T05:08:26.525Z,1.25
2024-04-18T05:10:28.276Z,1.48
2024-04-18T05:12:30.105Z,1.15
2024-04-18T05:14:31.924Z,2.20
2024-04-18T05:16:33.579Z,1.55
2024-04-18T05:18:36.108Z,1.48
2024-04-18T05:20:41.655Z,1.67
2024-04-18T05:22:43.391Z,1.50
2024-04-18T05:24:46.782Z,1.65
2024-04-18T05:26:50.502Z,1.55
2024-04-18T05:29:11.054Z,1.17
2024-04-18T05:31:12.708Z,1.45
2024-04-18T05:33:14.477Z,1.70
2024-04-18T05:35:16.308Z,1.83
2024-04-18T05:37:22.673Z,1.95
2024-04-18T05:39:24.845Z,3.10
2024-04-18T05:41:27.494Z,2.55
2024-04-18T05:43:30.610Z,2.65
2024-04-18T05:45:34.258Z,1.90
2024-04-18T05:47:36.769Z,2.42
2024-04-18T05:49:38.746Z,2.78
2024-04-18T05:51:40.883Z,2.03
2024-04-18T05:53:42.668Z,2.30
2024-04-18T05:55:44.411Z,1.58
2024-04-18T05:57:47.915Z,1.65
2024-04-18T05:59:50.191Z,1.52
2024-04-18T06:01:51.874Z,1.30
2024-04-18T06:03:53.667Z,2.08
2024-04-18T06:05:57.521Z,1.75
2024-04-18T06:07:59.177Z,1.85
2024-04-18T06:10:00.786Z,1.67
2024-04-18T06:12:02.438Z,2.00
2024-04-18T06:14:06.053Z,2.55
2024-04-18T06:16:08.052Z,1.75
2024-04-18T06:18:09.743Z,2.08
2024-04-18T06:20:11.420Z,1.80
2024-04-18T06:22:13.996Z,1.90
2024-04-18T06:24:15.720Z,2.00
2024-04-18T06:26:17.457Z,1.67
2024-04-18T06:28:19.190Z,1.95
2024-04-18T06:30:20.868Z,1.75
2024-04-18T06:32:22.690Z,2.00
2024-04-18T06:34:24.746Z,2.13
2024-04-18T06:36:26.497Z,2.00
2024-04-18T06:38:28.105Z,1.58
2024-04-18T06:40:29.728Z,1.27
2024-04-18T06:42:31.403Z,1.80
2024-04-18T06:44:33.511Z,2.00
2024-04-18T06:46:45.427Z,1.83
2024-04-18T06:48:55.414Z,1.63
2024-04-18T06:50:57.122Z,1.60
2024-04-18T06:52:58.984Z,1.20
2024-04-18T06:55:00.752Z,1.15
2024-04-18T06:57:02.375Z,1.08
2024-04-18T06:59:04.080Z,1.20
2024-04-18T07:01:06.536Z,1.33
2024-04-18T07:03:08.630Z,1.20
2024-04-18T07:05:10.340Z,1.10
2024-04-18T07:07:12.084Z,1.33
2024-04-18T07:09:13.775Z,1.33
2024-04-18T07:11:15.438Z,1.30
2024-04-18T07:13:17.198Z,1.35
2024-04-18T07:15:19.015Z,1.73
2024-04-18T07:17:20.831Z,1.27
2024-04-18T07:19:22.492Z,1.15
2024-04-18T07:21:24.359Z,1.13
2024-04-18T07:23:26.132Z,1.30
2024-04-18T07:25:27.814Z,1.67
2024-04-18T07:27:29.541Z,1.27
2024-04-18T07:29:31.163Z,1.17
2024-04-18T07:31:32.816Z,1.27
2024-04-18T07:33:35.145Z,1.45
2024-04-18T07:35:39.513Z,1.60
2024-04-18T07:37:41.173Z,1.05
2024-04-18T07:39:42.891Z,1.00
2024-04-18T07:41:44.549Z,0.98
2024-04-18T07:43:46.861Z,1.13
2024-04-18T07:45:48.812Z,0.93
2024-04-18T07:47:52.346Z,0.80
2024-04-18T07:49:54.515Z,1.08
2024-04-18T07:52:06.017Z,1.15
2024-04-18T07:54:12.739Z,1.13
2024-04-18T07:58:17.643Z,1.05
2024-04-18T08:00:20.987Z,0.57
2024-04-18T08:02:25.143Z,1.05
2024-04-18T08:04:45.493Z,1.27
2024-04-18T08:06:51.558Z,1.60
2024-04-18T08:08:57.140Z,1.17
2024-04-18T08:11:16.686Z,1.05
2024-04-18T08:13:27.055Z,1.05
2024-04-18T08:17:56.039Z,1.05
2024-04-18T08:19:57.773Z,1.30
2024-04-18T08:22:00.877Z,1.02
2024-04-18T08:26:07.321Z,0.98
2024-04-18T08:28:10.737Z,0.80
2024-04-18T08:32:15.772Z,0.85
2024-04-18T08:34:20.318Z,0.80
2024-04-18T08:36:24.342Z,0.90
2024-04-18T08:38:26.133Z,1.05
2024-04-18T08:40:28.305Z,1.95
2024-04-18T08:42:30.867Z,0.80
2024-04-18T08:44:32.802Z,1.00
2024-04-18T08:46:37.901Z,0.98
2024-04-18T08:48:39.720Z,0.60
2024-04-18T08:50:42.712Z,1.27
2024-04-18T08:52:45.373Z,0.80
2024-04-18T08:54:47.113Z,0.77
2024-04-18T08:56:51.826Z,0.77
2024-04-18T08:58:55.378Z,0.50
2024-04-18T09:00:59.106Z,0.90
2024-04-18T09:05:02.691Z,0.70
2024-04-18T09:07:04.400Z,0.55
2024-04-18T09:09:10.326Z,0.50
2024-04-18T09:11:12.070Z,0.85
2024-04-18T09:13:13.833Z,0.65
2024-04-18T09:15:15.590Z,0.60
2024-04-18T09:17:17.247Z,0.70
2024-04-18T09:19:19.599Z,0.77
2024-04-18T09:21:24.461Z,0.57
2024-04-18T09:23:26.293Z,0.60
2024-04-18T09:25:28.342Z,0.75
2024-04-18T09:27:30.151Z,0.50
2024-04-18T09:29:31.875Z,0.60
2024-04-18T09:31:38.450Z,0.50
2024-04-18T09:33:44.990Z,0.50
2024-04-18T09:35:48.036Z,0.30
2024-04-18T09:37:56.833Z,0.75
2024-04-18T09:40:03.518Z,0.52
2024-04-18T09:42:05.381Z,0.45
2024-04-18T09:44:11.736Z,0.93
2024-04-18T09:46:13.526Z,0.60
2024-04-18T09:48:16.361Z,1.17
2024-04-18T09:50:18.141Z,0.80
2024-04-18T09:52:20.544Z,0.70
2024-04-18T09:54:22.307Z,0.60
2024-04-18T09:56:26.509Z,0.60
2024-04-18T09:58:28.750Z,0.50
2024-04-18T10:00:31.202Z,1.03
2024-04-18T10:02:33.401Z,0.80
2024-04-18T10:04:35.791Z,0.73
2024-04-18T10:06:39.824Z,0.90
2024-04-18T10:08:44.306Z,0.60
2024-04-18T10:10:46.593Z,0.57
2024-04-18T10:12:48.431Z,0.77
2024-04-18T10:14:52.509Z,1.00
2024-04-18T10:16:54.271Z,0.82
2024-04-18T10:18:56.099Z,1.08
2024-04-18T10:20:58.788Z,0.73
2024-04-18T10:23:01.479Z,0.60
2024-04-18T10:25:03.748Z,0.95
2024-04-18T10:27:09.960Z,0.98
2024-04-18T10:29:24.692Z,0.50
2024-04-18T10:31:29.721Z,0.82
2024-04-18T10:33:31.503Z,1.10
2024-04-18T10:35:33.429Z,0.50
2024-04-18T10:37:35.140Z,0.65
2024-04-18T10:39:37.835Z,0.60
2024-04-18T10:41:45.269Z,0.40
2024-04-18T10:43:47.166Z,0.60
2024-04-18T10:45:49.568Z,0.63
2024-04-18T10:47:54.257Z,0.60
2024-04-18T10:49:56.702Z,0.65
2024-04-18T10:51:58.720Z,0.50
2024-04-18T10:54:00.638Z,0.73
2024-04-18T10:56:02.798Z,0.60
2024-04-18T10:58:05.891Z,0.73
2024-04-18T11:00:09.468Z,0.47
2024-04-18T11:02:13.746Z,0.50
2024-04-18T11:04:16.094Z,0.52
2024-04-18T11:06:18.809Z,0.73
2024-04-18T11:08:21.297Z,0.30
2024-04-18T11:10:24.267Z,0.70
2024-04-18T11:12:26.061Z,0.30
2024-04-18T11:14:29.167Z,0.60
2024-04-18T11:18:33.192Z,0.45
2024-04-18T11:20:35.211Z,0.95
2024-04-18T11:22:38.347Z,0.28
2024-04-18T11:24:41.715Z,0.52
2024-04-18T11:28:48.465Z,0.43
2024-04-18T11:30:50.546Z,0.50
2024-04-18T11:32:58.583Z,0.50
2024-04-18T11:35:07.708Z,0.63
2024-04-18T11:37:17.166Z,0.32
2024-04-18T11:39:19.361Z,0.50
2024-04-18T11:41:21.160Z,1.00
2024-04-18T11:43:23.036Z,0.50
2024-04-18T11:45:25.438Z,0.50
2024-04-18T11:47:27.398Z,0.70
2024-04-18T11:49:29.410Z,0.95
2024-04-18T11:51:31.317Z,0.40
2024-04-18T11:53:33.058Z,0.60
2024-04-18T11:55:35.049Z,0.50
2024-04-18T11:57:37.314Z,1.08
2024-04-18T11:59:41.278Z,0.50
2024-04-18T12:01:44.378Z,0.50
2024-04-18T12:03:46.238Z,0.70
2024-04-18T12:05:48.022Z,0.50
2024-04-18T12:07:50.617Z,1.10
2024-04-18T12:09:54.862Z,0.50
2024-04-18T12:11:56.666Z,1.35
2024-04-18T12:13:58.365Z,0.68
2024-04-18T12:16:00.534Z,0.90
2024-04-18T12:18:03.725Z,0.80
2024-04-18T12:20:05.738Z,0.60
2024-04-18T12:22:11.622Z,0.73
2024-04-18T12:24:13.283Z,0.90
2024-04-18T12:26:15.280Z,0.55
2024-04-18T12:28:17.039Z,0.40
2024-04-18T12:30:18.717Z,0.75
2024-04-18T12:32:20.890Z,0.65
2024-04-18T12:34:22.572Z,0.38
2024-04-18T12:36:26.020Z,0.68
2024-04-18T12:38:28.288Z,0.43
2024-04-18T12:40:29.934Z,0.70
2024-04-18T12:42:31.657Z,0.47
2024-04-18T12:44:33.336Z,0.57
2024-04-18T12:46:35.277Z,0.65
2024-04-18T12:48:39.197Z,0.50
2024-04-18T12:50:42.519Z,0.40
2024-04-18T12:52:46.162Z,0.40
2024-04-18T12:54:48.234Z,0.52
2024-04-18T12:56:50.792Z,0.45
2024-04-18T12:58:52.564Z,0.45
2024-04-18T13:00:54.245Z,0.35
2024-04-18T13:02:56.070Z,0.95
2024-04-18T13:04:57.762Z,2.90
2024-04-18T13:06:59.930Z,0.82
2024-04-18T13:09:01.778Z,1.25
2024-04-18T13:11:03.613Z,0.60
2024-04-18T13:13:05.338Z,0.50
2024-04-18T13:15:07.146Z,0.30
2024-04-18T13:17:08.855Z,0.30
2024-04-18T13:19:13.720Z,0.30
2024-04-18T13:21:15.421Z,0.30
2024-04-18T13:23:17.053Z,0.30
2024-04-18T13:25:18.913Z,0.52
2024-04-18T13:27:22.333Z,0.50
2024-04-18T13:29:25.497Z,0.38
2024-04-18T13:31:27.284Z,0.50
2024-04-18T13:33:29.127Z,0.30
2024-04-18T13:35:30.951Z,0.70
2024-04-18T13:37:32.597Z,1.20
2024-04-18T13:39:34.710Z,0.60
2024-04-18T13:41:44.249Z,0.65
2024-04-18T13:43:46.280Z,0.50
2024-04-18T13:45:48.076Z,0.52
2024-04-18T13:47:49.874Z,0.40
2024-04-18T13:49:51.612Z,0.20
2024-04-18T13:51:53.602Z,0.40
2024-04-18T13:53:58.559Z,0.50
2024-04-18T13:56:00.216Z,0.30
2024-04-18T13:58:01.810Z,0.50
2024-04-18T14:00:04.165Z,0.20
2024-04-18T14:02:10.102Z,0.68
2024-04-18T14:04:11.973Z,0.30
2024-04-18T14:06:13.736Z,0.40
2024-04-18T14:08:15.729Z,0.30
2024-04-18T14:10:17.514Z,0.75
2024-04-18T14:12:19.201Z,0.40
2024-04-18T14:14:20.925Z,0.32
2024-04-18T14:16:44.183Z,0.30
2024-04-18T14:18:53.104Z,0.40
2024-04-18T14:20:55.095Z,0.20
2024-04-18T14:22:56.758Z,0.45
2024-04-18T14:24:59.595Z,0.60
2024-04-18T14:27:01.228Z,0.45
2024-04-18T14:29:03.583Z,0.43
2024-04-18T14:31:05.619Z,0.30
2024-04-18T14:33:07.509Z,0.20
2024-04-18T14:35:11.506Z,0.82
2024-04-18T14:37:13.637Z,0.68
2024-04-18T14:39:15.419Z,0.40
2024-04-18T14:41:17.588Z,0.43
2024-04-18T14:43:19.699Z,0.47
2024-04-18T14:45:22.161Z,0.55
2024-04-18T14:47:24.608Z,0.95
2024-04-18T14:49:26.905Z,0.75
2024-04-18T14:51:29.018Z,0.73
2024-04-18T14:53:30.927Z,0.75
2024-04-18T14:55:32.791Z,0.60
2024-04-18T14:57:34.615Z,0.65
2024-04-18T14:59:36.570Z,0.68
2024-04-18T15:01:38.421Z,0.73
2024-04-18T15:03:40.377Z,0.80
2024-04-18T15:05:49.093Z,0.80
2024-04-18T15:07:51.110Z,0.80
2024-04-18T15:09:53.675Z,0.70
2024-04-18T15:11:56.555Z,0.70
2024-04-18T15:13:58.257Z,0.65
2024-04-18T15:16:02.466Z,0.65
2024-04-18T15:18:06.841Z,0.50
2024-04-18T15:20:09.164Z,0.60
2024-04-18T15:22:11.209Z,0.77
2024-04-18T15:24:13.484Z,0.70
2024-04-18T15:26:17.169Z,0.60
2024-04-18T15:28:19.142Z,0.52
2024-04-18T15:30:20.864Z,0.80
2024-04-18T15:32:22.689Z,0.82
2024-04-18T15:34:24.436Z,0.70
2024-04-18T15:36:26.262Z,0.60
2024-04-18T15:38:28.007Z,0.60
2024-04-18T15:40:29.744Z,0.90
2024-04-18T15:42:31.548Z,0.60
2024-04-18T15:44:35.172Z,0.63
2024-04-18T15:46:37.918Z,0.70
2024-04-18T15:48:39.723Z,0.80
2024-04-18T15:50:41.418Z,0.60
2024-04-18T15:52:43.092Z,0.60
2024-04-18T15:54:44.755Z,0.68
2024-04-18T15:56:46.508Z,0.40
2024-04-18T15:58:48.145Z,1.08
2024-04-18T16:00:49.954Z,0.40
2024-04-18T16:02:53.383Z,0.40
2024-04-18T16:04:56.724Z,0.68
2024-04-18T16:06:58.384Z,0.30
2024-04-18T16:09:00.088Z,0.85
2024-04-18T16:11:01.985Z,0.95
2024-04-18T16:13:03.663Z,0.80
2024-04-18T16:15:06.321Z,0.50
2024-04-18T16:17:08.313Z,0.75
2024-04-18T16:19:09.960Z,1.13
2024-04-18T16:21:12.018Z,0.80
2024-04-18T16:23:14.171Z,0.93
2024-04-18T16:25:15.968Z,1.13
2024-04-18T16:27:17.741Z,1.25
2024-04-18T16:29:22.213Z,0.73
2024-04-18T16:31:23.868Z,0.60
2024-04-18T16:33:25.605Z,0.50
2024-04-18T16:35:27.348Z,0.73
2024-04-18T16:37:29.080Z,0.60
2024-04-18T16:39:30.786Z,0.60
2024-04-18T16:41:32.494Z,0.55
2024-04-18T16:43:37.292Z,2.35
2024-04-18T16:45:40.444Z,0.60
2024-04-18T16:47:42.215Z,0.60
2024-04-18T16:49:44.050Z,0.50
2024-04-18T16:51:45.722Z,0.73
2024-04-18T16:53:47.365Z,0.80
2024-04-18T16:55:48.978Z,0.63
2024-04-18T16:57:50.668Z,0.88
2024-04-18T16:59:53.193Z,0.73
2024-04-18T17:01:55.237Z,0.70
2024-04-18T17:03:57.592Z,0.45
2024-04-18T17:06:03.591Z,0.70
2024-04-18T17:08:06.744Z,0.63
2024-04-18T17:10:09.364Z,0.52
2024-04-18T17:12:12.908Z,0.88
2024-04-18T17:14:16.976Z,0.80
2024-04-18T17:16:19.922Z,0.70
2024-04-18T17:18:23.174Z,1.20
2024-04-18T17:20:26.897Z,0.75
2024-04-18T17:22:29.588Z,0.47
2024-04-18T17:24:32.703Z,0.90
2024-04-18T17:26:35.537Z,0.80
2024-04-18T17:28:38.646Z,0.50
2024-04-18T17:30:41.787Z,0.70
2024-04-18T17:32:46.533Z,1.02
2024-04-18T17:34:50.065Z,1.20
2024-04-18T17:36:53.515Z,0.80
2024-04-18T17:38:57.552Z,0.60
2024-04-18T17:41:03.685Z,0.95
2024-04-18T17:43:08.198Z,1.05
2024-04-18T17:47:11.954Z,0.85
2024-04-18T17:49:13.936Z,0.70
2024-04-18T17:51:15.707Z,0.65
2024-04-18T17:53:17.814Z,0.70
2024-04-18T17:55:22.539Z,0.70
2024-04-18T17:57:24.262Z,0.75
2024-04-18T17:59:28.401Z,0.80
2024-04-18T18:03:32.169Z,1.35
2024-04-18T18:05:34.393Z,1.10
2024-04-18T18:07:38.034Z,0.98
2024-04-18T18:09:43.110Z,1.58
2024-04-18T18:11:44.986Z,1.17
2024-04-18T18:13:48.015Z,1.55
2024-04-18T18:15:51.024Z,1.15
2024-04-18T18:17:53.306Z,1.83
2024-04-18T18:19:55.072Z,1.45
2024-04-18T18:21:56.935Z,1.58
2024-04-18T18:23:59.673Z,1.77
2024-04-18T18:26:01.341Z,1.65
2024-04-18T18:28:03.305Z,1.42
2024-04-18T18:30:05.812Z,1.42
2024-04-18T18:32:13.889Z,0.98
2024-04-18T18:34:16.021Z,1.23
2024-04-18T18:36:18.127Z,1.13
2024-04-18T18:38:19.950Z,1.20
2024-04-18T18:40:21.637Z,1.70
2024-04-18T18:42:23.360Z,1.05
2024-04-18T18:44:25.083Z,1.13
2024-04-18T18:46:26.793Z,1.00
2024-04-18T18:48:28.544Z,1.23
2024-04-18T18:50:30.281Z,1.00
2024-04-18T18:52:31.959Z,1.00
2024-04-18T18:54:33.674Z,1.33
2024-04-18T18:56:35.515Z,1.17
2024-04-18T18:58:37.364Z,1.10
2024-04-18T19:00:39.250Z,1.05
2024-04-18T19:02:41.450Z,1.10
2024-04-18T19:04:43.122Z,1.05
2024-04-18T19:06:44.904Z,1.15
2024-04-18T19:08:46.622Z,1.10
2024-04-18T19:10:48.253Z,1.08
2024-04-18T19:12:51.741Z,1.55
2024-04-18T19:14:53.561Z,2.45
2024-04-18T19:16:55.465Z,0.90
2024-04-18T19:18:57.457Z,1.27
2024-04-18T19:20:59.245Z,1.02
2024-04-18T19:23:01.581Z,1.40
2024-04-18T19:25:03.490Z,1.00
2024-04-18T19:27:05.258Z,1.17
2024-04-18T19:29:07.019Z,1.05
2024-04-18T19:31:09.938Z,0.73
2024-04-18T19:33:11.742Z,0.80
2024-04-18T19:35:14.980Z,0.70
2024-04-18T19:37:16.782Z,0.85
2024-04-18T19:39:18.534Z,0.75
2024-04-18T19:41:20.285Z,0.70
2024-04-18T19:43:21.974Z,0.95
2024-04-18T19:45:23.646Z,1.20
2024-04-18T19:47:25.347Z,1.20
2024-04-18T19:49:28.311Z,0.57
2024-04-18T19:51:31.482Z,1.30
2024-04-18T19:53:33.144Z,1.00
2024-04-18T19:55:34.847Z,0.70
2024-04-18T19:57:36.549Z,0.63
2024-04-18T19:59:39.285Z,0.75
2024-04-18T20:01:41.066Z,1.00
2024-04-18T20:03:42.975Z,0.80
2024-04-18T20:05:45.581Z,1.05
2024-04-18T20:07:49.628Z,0.80
2024-04-18T20:09:51.841Z,1.20
2024-04-18T20:11:53.491Z,1.15
2024-04-18T20:13:55.533Z,2.55
2024-04-18T20:15:57.799Z,0.88
2024-04-18T20:18:03.441Z,1.15
2024-04-18T20:20:06.747Z,1.00
2024-04-18T20:22:09.252Z,1.20
2024-04-18T20:24:12.387Z,1.77
2024-04-18T20:26:14.609Z,1.73
2024-04-18T20:28:16.948Z,1.17
2024-04-18T20:30:19.550Z,1.35
2024-04-18T20:32:22.747Z,1.67
2024-04-18T20:34:25.549Z,1.67
2024-04-18T20:36:28.607Z,1.42
2024-04-18T20:38:31.367Z,1.60
2024-04-18T20:40:33.752Z,1.48
2024-04-18T20:42:36.330Z,1.33
2024-04-18T20:44:39.785Z,2.28
2024-04-18T20:46:43.263Z,1.10
2024-04-18T20:48:46.196Z,1.60
2024-04-18T20:50:49.554Z,1.50
2024-04-18T20:52:52.014Z,1.42
2024-04-18T20:54:53.658Z,1.38
2024-04-18T20:56:55.328Z,1.75
2024-04-18T20:58:56.987Z,2.42
2024-04-18T21:00:58.683Z,1.40
2024-04-18T21:03:01.172Z,2.72
2024-04-18T21:05:04.108Z,1.45
2024-04-18T21:07:06.364Z,1.48
2024-04-18T21:09:08.053Z,1.75
2024-04-18T21:11:10.019Z,1.50
2024-04-18T21:13:14.053Z,2.25
2024-04-18T21:17:17.394Z,1.60
2024-04-18T21:19:21.664Z,2.58
2024-04-18T21:21:23.965Z,2.70
2024-04-18T21:23:25.590Z,2.72
2024-04-18T21:25:27.560Z,2.85
2024-04-18T21:27:29.208Z,2.67
2024-04-18T21:29:30.881Z,3.55
2024-04-18T21:31:32.642Z,3.05
2024-04-18T21:33:34.536Z,2.60
2024-04-18T21:35:36.341Z,2.83
2024-04-18T21:37:38.035Z,2.72
2024-04-18T21:39:39.731Z,3.28
2024-04-18T21:41:42.989Z,2.90
2024-04-18T21:43:44.595Z,2.40
2024-04-18T21:45:46.481Z,2.22
2024-04-18T21:47:48.390Z,1.73
2024-04-18T21:49:50.044Z,1.98
2024-04-18T21:51:51.721Z,1.80
2024-04-18T21:53:53.471Z,2.97
2024-04-18T21:55:55.088Z,1.77
2024-04-18T21:57:56.797Z,2.47
2024-04-18T21:59:58.469Z,1.85
2024-04-18T22:02:00.479Z,1.90
2024-04-18T22:04:02.422Z,2.40
2024-04-18T22:08:07.020Z,2.70
2024-04-18T22:10:08.680Z,2.60
2024-04-18T22:12:10.486Z,1.67
2024-04-18T22:14:12.193Z,1.52
2024-04-18T22:16:13.920Z,2.38
2024-04-18T22:18:15.820Z,2.30
2024-04-18T22:20:17.659Z,1.40
2024-04-18T22:22:19.342Z,1.13
2024-04-18T22:24:21.038Z,1.10
2024-04-18T22:26:22.706Z,1.10
2024-04-18T22:28:24.385Z,0.80
2024-04-18T22:30:26.129Z,1.20
2024-04-18T22:32:27.770Z,1.13
2024-04-18T22:34:36.389Z,0.75
2024-04-18T22:36:39.145Z,1.48
2024-04-18T22:38:41.157Z,1.02
2024-04-18T22:40:43.959Z,0.93
2024-04-18T22:42:46.094Z,1.52
2024-04-18T22:44:47.747Z,1.10
2024-04-18T22:46:49.389Z,0.75
2024-04-18T22:48:51.162Z,0.80
2024-04-18T22:50:52.937Z,1.00
2024-04-18T22:52:54.562Z,0.50
2024-04-18T22:54:57.406Z,0.88
2024-04-18T22:56:59.230Z,1.02
2024-04-18T22:59:02.330Z,0.70
2024-04-18T23:01:04.517Z,0.90
2024-04-18T23:03:06.586Z,1.13
2024-04-18T23:05:08.312Z,1.63
2024-04-18T23:07:10.418Z,1.13
2024-04-18T23:09:12.218Z,1.17
2024-04-18T23:11:14.378Z,0.90
2024-04-18T23:13:16.242Z,0.80
2024-04-18T23:15:17.972Z,0.80
2024-04-18T23:17:19.630Z,0.73
2024-04-18T23:19:21.433Z,1.38
2024-04-18T23:21:23.235Z,1.33
2024-04-18T23:23:25.166Z,0.80
2024-04-18T23:25:26.831Z,1.27
2024-04-18T23:27:28.674Z,1.45
2024-04-18T23:29:30.741Z,0.77
2024-04-18T23:31:32.481Z,0.95
2024-04-18T23:33:34.334Z,0.82
2024-04-18T23:35:40.813Z,0.70
2024-04-18T23:37:42.487Z,1.25
2024-04-18T23:39:44.445Z,0.70
2024-04-18T23:41:46.218Z,1.08
2024-04-18T23:43:47.881Z,0.90
2024-04-18T23:45:49.884Z,0.68
2024-04-18T23:47:51.789Z,0.85
2024-04-18T23:49:53.687Z,0.70
2024-04-18T23:51:55.393Z,0.77
2024-04-18T23:53:57.030Z,0.70
2024-04-18T23:55:58.681Z,0.93
2024-04-18T23:58:00.540Z,1.00
